Time;durP1;ratioP1;P1;durP2;ratioP2;P2;SDS_P1;SDS_P2;PMS_P1;PMS_P2;Temp;Humidity;BMP_temperature;BMP_pressure;BME280_temperature;BME280_humidity;BME280_pressure;Samples;Min_cycle;Max_cycle;Signal;HPM_P1;HPM_P2
2022/07/17 00:01:07;;;;;;;0.95;0.60;;;21.80;43.90;;;;;;5069818;28;20527;-81
2022/07/17 00:03:33;;;;;;;1.67;0.85;;;21.80;44.00;;;;;;5069241;28;20028;-81
2022/07/17 00:05:59;;;;;;;0.77;0.60;;;21.70;44.00;;;;;;5066744;28;20033;-81
2022/07/17 00:08:24;;;;;;;1.17;0.70;;;21.70;44.00;;;;;;5061364;28;20090;-80
2022/07/17 00:10:51;;;;;;;0.80;0.55;;;21.70;44.10;;;;;;5068005;28;20445;-80
2022/07/17 00:13:16;;;;;;;0.70;0.70;;;21.60;44.10;;;;;;5069619;28;20040;-80
2022/07/17 00:15:42;;;;;;;1.08;0.73;;;21.60;44.20;;;;;;5045354;28;20033;-80
2022/07/17 00:18:08;;;;;;;0.73;0.70;;;21.60;44.30;;;;;;5053482;28;20036;-80
2022/07/17 00:20:35;;;;;;;0.80;0.75;;;21.50;44.30;;;;;;5072824;28;20112;-79
2022/07/17 00:23:01;;;;;;;0.93;0.70;;;21.50;44.30;;;;;;5068761;28;20037;-82
2022/07/17 00:25:26;;;;;;;1.38;0.70;;;21.50;44.40;;;;;;5064604;28;20062;-82
2022/07/17 00:27:52;;;;;;;1.48;0.85;;;21.40;44.40;;;;;;5066222;28;20028;-79
2022/07/17 00:30:19;;;;;;;1.80;0.80;;;21.40;44.40;;;;;;5052495;28;20064;-80
2022/07/17 00:32:45;;;;;;;0.73;0.70;;;21.40;44.50;;;;;;5072242;28;20122;-80
2022/07/17 00:35:11;;;;;;;0.85;0.80;;;21.40;44.60;;;;;;5052897;28;20111;-80
2022/07/17 00:37:41;;;;;;;0.57;0.57;;;21.30;44.60;;;;;;5072124;28;20060;-80
2022/07/17 00:40:09;;;;;;;0.85;0.70;;;21.30;44.70;;;;;;5069522;28;20393;-80
2022/07/17 00:42:35;;;;;;;1.17;0.70;;;21.30;44.70;;;;;;5064502;28;20017;-80
2022/07/17 00:45:01;;;;;;;0.70;0.70;;;21.20;44.60;;;;;;5070045;28;20392;-79
2022/07/17 00:47:27;;;;;;;2.08;0.98;;;21.20;44.70;;;;;;5055745;28;20492;-80
2022/07/17 00:49:53;;;;;;;1.30;0.77;;;21.10;44.70;;;;;;5065111;28;20037;-80
2022/07/17 00:52:19;;;;;;;2.65;1.00;;;21.10;44.80;;;;;;5076823;28;20334;-80
2022/07/17 00:54:46;;;;;;;0.98;0.85;;;21.10;44.80;;;;;;5070289;28;20040;-82
2022/07/17 00:57:14;;;;;;;1.90;0.90;;;21.10;44.90;;;;;;5069791;28;20071;-80
2022/07/17 00:59:41;;;;;;;1.20;0.90;;;21.00;44.90;;;;;;5072458;28;20036;-80
2022/07/17 01:02:11;;;;;;;1.45;0.82;;;21.00;44.90;;;;;;5040943;28;20051;-79
2022/07/17 01:04:38;;;;;;;1.15;0.80;;;20.90;44.90;;;;;;5047322;28;20031;-79
2022/07/17 01:07:06;;;;;;;1.50;0.80;;;20.90;45.00;;;;;;5056344;28;20025;-81
2022/07/17 01:09:32;;;;;;;2.65;1.10;;;20.90;45.10;;;;;;5060981;28;20021;-80
2022/07/17 01:11:58;;;;;;;1.52;0.80;;;20.80;45.10;;;;;;5064005;28;20108;-79
2022/07/17 01:14:25;;;;;;;1.25;0.85;;;20.80;45.10;;;;;;5055787;28;20112;-80
2022/07/17 01:16:52;;;;;;;1.13;0.70;;;20.80;45.20;;;;;;5049306;28;20021;-80
2022/07/17 01:19:19;;;;;;;1.25;0.90;;;20.80;45.20;;;;;;5056807;28;20040;-81
2022/07/17 01:21:47;;;;;;;1.05;0.75;;;20.70;45.20;;;;;;5081785;28;20465;-80
2022/07/17 01:24:13;;;;;;;0.68;0.68;;;20.70;45.30;;;;;;5056858;28;20640;-80
2022/07/17 01:26:44;;;;;;;1.35;0.93;;;20.70;45.30;;;;;;5057263;28;20024;-80
2022/07/17 01:29:12;;;;;;;0.70;0.70;;;20.60;45.40;;;;;;5060714;28;20040;-80
2022/07/17 01:31:39;;;;;;;1.23;0.80;;;20.60;45.40;;;;;;5060994;28;20040;-80
2022/07/17 01:34:06;;;;;;;0.88;0.80;;;20.60;45.50;;;;;;5050751;28;20021;-80
2022/07/17 01:36:33;;;;;;;0.63;0.63;;;20.60;45.50;;;;;;5073729;28;20583;-83
2022/07/17 01:38:58;;;;;;;0.80;0.65;;;20.50;45.50;;;;;;5054304;28;20031;-80
2022/07/17 01:41:24;;;;;;;1.38;0.80;;;20.50;45.60;;;;;;5057365;28;20040;-81
2022/07/17 01:43:50;;;;;;;1.52;0.70;;;20.50;45.60;;;;;;5081960;28;20048;-80
2022/07/17 01:46:16;;;;;;;0.88;0.80;;;20.40;45.60;;;;;;5077429;28;20103;-80
2022/07/17 01:48:41;;;;;;;1.85;0.93;;;20.40;45.60;;;;;;5069577;28;20057;-80
2022/07/17 01:51:07;;;;;;;0.73;0.63;;;20.40;45.70;;;;;;5049232;28;20027;-79
2022/07/17 01:53:33;;;;;;;1.45;0.88;;;20.40;45.80;;;;;;5055297;28;20824;-85
2022/07/17 01:55:59;;;;;;;0.95;0.80;;;20.30;45.80;;;;;;5031741;28;20054;-80
2022/07/17 01:58:25;;;;;;;0.98;0.73;;;20.30;45.80;;;;;;5015499;28;20052;-79
2022/07/17 02:00:52;;;;;;;0.65;0.63;;;20.30;45.90;;;;;;5040885;28;20513;-79
2022/07/17 02:03:19;;;;;;;1.67;0.80;;;20.30;45.90;;;;;;5050082;28;20210;-79
2022/07/17 02:05:44;;;;;;;1.80;0.93;;;20.20;45.90;;;;;;5031395;28;20033;-80
2022/07/17 02:08:10;;;;;;;0.95;0.70;;;20.20;46.00;;;;;;5048869;28;20482;-82
2022/07/17 02:10:36;;;;;;;1.33;0.82;;;20.20;46.00;;;;;;5053722;28;20025;-79
2022/07/17 02:13:02;;;;;;;1.80;0.80;;;20.20;46.10;;;;;;5033011;28;20059;-79
2022/07/17 02:15:28;;;;;;;2.20;1.02;;;20.10;46.10;;;;;;5067070;28;20104;-79
2022/07/17 02:17:54;;;;;;;1.10;0.75;;;20.10;46.20;;;;;;5062322;28;20128;-80
2022/07/17 02:20:21;;;;;;;1.00;0.82;;;20.10;46.30;;;;;;5038987;28;20029;-79
2022/07/17 02:22:46;;;;;;;0.73;0.70;;;20.00;46.30;;;;;;5056583;28;20032;-82
2022/07/17 02:25:13;;;;;;;1.08;0.85;;;20.00;46.30;;;;;;5071968;28;20025;-80
2022/07/17 02:27:40;;;;;;;0.80;0.70;;;20.00;46.40;;;;;;5041799;28;20041;-80
2022/07/17 02:30:15;;;;;;;2.05;0.82;;;20.00;46.40;;;;;;5058094;28;20017;-79
2022/07/17 02:32:42;;;;;;;1.38;0.93;;;19.90;46.40;;;;;;5050502;28;20036;-79
2022/07/17 02:35:09;;;;;;;0.80;0.80;;;19.90;46.40;;;;;;5023161;28;20028;-79
2022/07/17 02:37:35;;;;;;;0.70;0.70;;;19.90;46.50;;;;;;5064580;28;20038;-79
2022/07/17 02:40:01;;;;;;;1.00;0.85;;;19.80;46.50;;;;;;5065281;28;20041;-79
2022/07/17 02:42:28;;;;;;;1.30;0.77;;;19.80;46.50;;;;;;5046541;28;20028;-79
2022/07/17 02:44:54;;;;;;;1.10;0.80;;;19.80;46.60;;;;;;5040599;28;20041;-79
2022/07/17 02:47:29;;;;;;;1.30;0.85;;;19.80;46.70;;;;;;5043669;28;20036;-80
2022/07/17 02:49:55;;;;;;;;;;;19.70;46.80;;;;;;5045323;28;20033;-81
2022/07/17 02:52:21;;;;;;;0.60;0.60;;;19.70;46.60;;;;;;5060716;28;19912;-79
2022/07/17 02:54:47;;;;;;;0.95;0.85;;;19.70;46.60;;;;;;5043565;28;20473;-80
2022/07/17 02:57:13;;;;;;;1.20;0.82;;;19.60;46.70;;;;;;5044640;28;20473;-79
2022/07/17 02:59:39;;;;;;;1.38;1.10;;;19.60;46.80;;;;;;5064544;28;20113;-84
2022/07/17 03:02:05;;;;;;;1.73;0.90;;;19.60;46.80;;;;;;5057816;28;20037;-79
2022/07/17 03:04:31;;;;;;;1.27;0.90;;;19.60;46.90;;;;;;5060663;28;20039;-79
2022/07/17 03:06:57;;;;;;;1.30;1.00;;;19.50;46.90;;;;;;5069922;28;20079;-79
2022/07/17 03:09:23;;;;;;;1.10;0.90;;;19.50;46.90;;;;;;5058129;28;20476;-79
2022/07/17 03:11:48;;;;;;;1.27;0.60;;;19.50;47.00;;;;;;5044723;28;20036;-80
2022/07/17 03:14:14;;;;;;;1.48;0.80;;;19.50;47.00;;;;;;5046106;28;20037;-81
2022/07/17 03:16:40;;;;;;;1.30;0.90;;;19.40;47.00;;;;;;5043462;28;20481;-80
2022/07/17 03:19:05;;;;;;;0.80;0.68;;;19.40;47.10;;;;;;5042591;28;20473;-79
2022/07/17 03:21:31;;;;;;;1.02;0.70;;;19.40;47.10;;;;;;5051730;28;20040;-79
2022/07/17 03:23:57;;;;;;;1.10;0.88;;;19.40;47.20;;;;;;5042713;28;20038;-79
2022/07/17 03:26:22;;;;;;;1.10;0.77;;;19.30;47.20;;;;;;5060944;28;20046;-79
2022/07/17 03:28:48;;;;;;;1.77;0.90;;;19.30;47.20;;;;;;5042486;28;20028;-79
2022/07/17 03:31:14;;;;;;;0.60;0.60;;;19.30;47.30;;;;;;5014925;28;20025;-82
2022/07/17 03:33:40;;;;;;;0.75;0.75;;;19.30;47.30;;;;;;5048578;28;20053;-79
2022/07/17 03:36:06;;;;;;;1.45;1.00;;;19.20;47.30;;;;;;5046641;28;20032;-79
2022/07/17 03:38:32;;;;;;;1.38;0.82;;;19.30;47.40;;;;;;5043875;28;20110;-78
2022/07/17 03:40:58;;;;;;;1.15;0.90;;;19.30;47.50;;;;;;5043247;28;20059;-79
2022/07/17 03:43:24;;;;;;;1.20;0.85;;;19.20;47.50;;;;;;5020400;28;20540;-79
2022/07/17 03:45:50;;;;;;;1.15;0.98;;;19.20;47.50;;;;;;5041393;28;20028;-79
2022/07/17 03:48:16;;;;;;;2.45;1.00;;;19.20;47.60;;;;;;5037709;28;20067;-79
2022/07/17 03:50:42;;;;;;;1.17;0.90;;;19.10;47.60;;;;;;5033638;28;20473;-79
2022/07/17 03:53:07;;;;;;;1.67;0.90;;;19.10;47.60;;;;;;5034522;28;20036;-79
2022/07/17 03:55:34;;;;;;;0.85;0.85;;;19.10;47.70;;;;;;5052416;28;20028;-79
2022/07/17 03:58:00;;;;;;;1.92;1.10;;;19.00;47.70;;;;;;5041564;28;20045;-78
2022/07/17 04:00:25;;;;;;;1.15;0.90;;;19.00;47.70;;;;;;5032006;28;20037;-79
2022/07/17 04:02:51;;;;;;;1.58;0.95;;;19.00;47.80;;;;;;5025403;28;20495;-79
2022/07/17 04:05:17;;;;;;;1.45;0.95;;;19.00;47.80;;;;;;5049066;28;20144;-79
2022/07/17 04:07:43;;;;;;;1.20;0.90;;;19.00;47.90;;;;;;5047578;28;20056;-79
2022/07/17 04:10:11;;;;;;;1.25;1.05;;;19.00;48.00;;;;;;5028408;28;20461;-79
2022/07/17 04:12:37;;;;;;;1.02;0.77;;;19.00;48.00;;;;;;5028048;28;20025;-79
2022/07/17 04:15:04;;;;;;;0.80;0.80;;;18.90;48.00;;;;;;5038854;28;20048;-79
2022/07/17 04:17:30;;;;;;;1.20;0.90;;;18.90;48.10;;;;;;5010933;28;20025;-79
2022/07/17 04:19:55;;;;;;;1.98;0.90;;;18.90;48.10;;;;;;5009561;28;20493;-79
2022/07/17 04:22:21;;;;;;;1.00;0.90;;;18.90;48.10;;;;;;5017108;28;20072;-79
2022/07/17 04:24:47;;;;;;;1.13;0.90;;;18.80;48.10;;;;;;5041649;28;20071;-79
2022/07/17 04:27:13;;;;;;;1.10;0.80;;;18.90;48.20;;;;;;5011571;28;20112;-79
2022/07/17 04:29:39;;;;;;;1.10;0.80;;;18.80;48.30;;;;;;4992368;28;20531;-78
2022/07/17 04:32:05;;;;;;;1.00;0.90;;;18.80;48.30;;;;;;5014218;28;20029;-78
2022/07/17 04:34:34;;;;;;;0.75;0.75;;;18.80;48.30;;;;;;5031945;28;20033;-79
2022/07/17 04:37:01;;;;;;;0.80;0.75;;;18.80;48.30;;;;;;5044155;28;20068;-80
2022/07/17 04:39:27;;;;;;;0.90;0.90;;;18.80;48.40;;;;;;5041240;28;20037;-80
2022/07/17 04:41:52;;;;;;;0.70;0.70;;;18.70;48.40;;;;;;5032747;28;20056;-79
2022/07/17 04:44:19;;;;;;;1.52;0.90;;;18.80;48.50;;;;;;5025551;28;20469;-80
2022/07/17 04:46:45;;;;;;;1.52;1.00;;;18.70;48.40;;;;;;5033991;28;20032;-79
2022/07/17 04:49:11;;;;;;;1.05;0.88;;;18.70;48.50;;;;;;5032633;28;20096;-81
2022/07/17 04:51:36;;;;;;;1.42;0.90;;;18.70;48.50;;;;;;5028803;28;22069;-79
2022/07/17 04:54:02;;;;;;;1.35;1.00;;;18.70;48.50;;;;;;5049765;28;20028;-79
2022/07/17 04:56:28;;;;;;;0.95;0.90;;;18.60;48.50;;;;;;5016500;28;20500;-79
2022/07/17 04:58:54;;;;;;;1.67;0.80;;;18.70;48.60;;;;;;5025113;28;20475;-79
2022/07/17 05:01:19;;;;;;;1.20;0.77;;;18.70;48.60;;;;;;5052726;28;20029;-79
2022/07/17 05:03:45;;;;;;;1.00;0.85;;;18.60;48.60;;;;;;5067103;28;20866;-80
2022/07/17 05:06:11;;;;;;;1.27;1.00;;;18.60;48.60;;;;;;5061698;28;20477;-79
2022/07/17 05:08:37;;;;;;;1.50;0.85;;;18.60;48.60;;;;;;5058705;28;20362;-81
2022/07/17 05:11:03;;;;;;;1.10;1.00;;;18.60;48.60;;;;;;5067362;28;20046;-79
2022/07/17 05:13:28;;;;;;;1.25;0.90;;;18.60;48.70;;;;;;5048789;28;20104;-81
2022/07/17 05:15:54;;;;;;;1.42;0.93;;;18.60;48.70;;;;;;5051693;28;20043;-79
2022/07/17 05:18:20;;;;;;;0.80;0.80;;;18.60;48.70;;;;;;5064010;28;20127;-81
2022/07/17 05:20:46;;;;;;;0.68;0.68;;;18.60;48.70;;;;;;5071701;28;20024;-80
2022/07/17 05:23:11;;;;;;;1.08;0.93;;;18.50;48.70;;;;;;5064923;28;20111;-79
2022/07/17 05:25:37;;;;;;;1.13;1.00;;;18.50;48.80;;;;;;5066589;28;20027;-79
2022/07/17 05:28:03;;;;;;;0.95;0.73;;;18.50;48.80;;;;;;5068539;28;20393;-80
2022/07/17 05:30:29;;;;;;;0.85;0.85;;;18.60;48.90;;;;;;5057669;28;20399;-80
2022/07/17 05:32:55;;;;;;;1.35;1.00;;;18.50;48.80;;;;;;5070265;28;20590;-79
2022/07/17 05:35:21;;;;;;;1.60;0.90;;;18.60;48.90;;;;;;5070035;28;20121;-79
2022/07/17 05:37:47;;;;;;;1.48;1.33;;;18.50;48.80;;;;;;5053984;28;20035;-79
2022/07/17 05:40:12;;;;;;;0.95;0.88;;;18.50;48.80;;;;;;5056939;28;20044;-79
2022/07/17 05:42:38;;;;;;;0.85;0.80;;;18.50;48.80;;;;;;5053019;28;20021;-79
2022/07/17 05:45:05;;;;;;;0.98;0.90;;;18.50;48.90;;;;;;5080059;28;20089;-78
2022/07/17 05:47:30;;;;;;;2.50;1.00;;;18.50;48.90;;;;;;5073774;28;20058;-79
2022/07/17 05:49:57;;;;;;;0.90;0.85;;;18.50;48.90;;;;;;5062831;28;20100;-79
2022/07/17 05:52:22;;;;;;;1.13;0.90;;;18.50;49.00;;;;;;5055757;28;20362;-80
2022/07/17 05:54:50;;;;;;;1.88;1.05;;;18.50;49.00;;;;;;5056604;28;20071;-79
2022/07/17 05:57:15;;;;;;;1.35;0.90;;;18.50;49.00;;;;;;5072825;28;20422;-80
2022/07/17 05:59:41;;;;;;;1.10;0.90;;;18.50;49.10;;;;;;5088365;28;20091;-80
2022/07/17 06:02:07;;;;;;;1.13;0.90;;;18.60;49.10;;;;;;5070091;28;20056;-80
2022/07/17 06:04:33;;;;;;;1.02;1.00;;;18.50;49.10;;;;;;5052095;28;20025;-81
2022/07/17 06:06:58;;;;;;;0.98;0.80;;;18.50;49.10;;;;;;5070486;28;20387;-79
2022/07/17 06:09:24;;;;;;;1.13;0.82;;;18.50;49.20;;;;;;5072430;28;20037;-79
2022/07/17 06:11:50;;;;;;;0.93;0.90;;;18.50;49.20;;;;;;5071964;28;20025;-81
2022/07/17 06:14:16;;;;;;;1.67;0.88;;;18.50;49.20;;;;;;5067447;28;20558;-79
2022/07/17 06:16:42;;;;;;;1.95;1.20;;;18.60;49.30;;;;;;5067083;28;20440;-81
2022/07/17 06:19:07;;;;;;;1.10;1.00;;;18.60;49.30;;;;;;5066611;28;20041;-80
2022/07/17 06:21:33;;;;;;;0.80;0.80;;;18.50;49.20;;;;;;5070807;28;20082;-79
2022/07/17 06:23:59;;;;;;;1.65;0.93;;;18.60;49.30;;;;;;5069317;28;20434;-79
2022/07/17 06:26:24;;;;;;;1.92;1.00;;;18.60;49.30;;;;;;5072382;28;20044;-79
2022/07/17 06:28:51;;;;;;;1.23;0.93;;;18.60;49.30;;;;;;5055412;28;20071;-80
2022/07/17 06:31:17;;;;;;;0.82;0.82;;;18.60;49.30;;;;;;5071395;28;20078;-79
2022/07/17 06:33:42;;;;;;;2.05;1.00;;;18.70;49.40;;;;;;5054342;28;20037;-78
2022/07/17 06:36:08;;;;;;;1.15;0.85;;;18.60;49.60;;;;;;5055147;28;20036;-79
2022/07/17 06:38:34;;;;;;;0.85;0.80;;;18.60;49.30;;;;;;5067500;28;20032;-79
2022/07/17 06:41:01;;;;;;;0.90;0.73;;;18.70;49.30;;;;;;5072035;28;20037;-79
2022/07/17 06:43:26;;;;;;;1.08;0.77;;;18.70;49.40;;;;;;5048381;28;20033;-79
2022/07/17 06:45:54;;;;;;;0.98;0.80;;;18.70;49.30;;;;;;5053598;28;20454;-83
2022/07/17 06:48:23;;;;;;;1.27;0.90;;;18.70;49.30;;;;;;5074364;28;20036;-83
2022/07/17 06:50:48;;;;;;;0.75;0.75;;;18.70;49.40;;;;;;5069983;28;20031;-83
2022/07/17 06:53:14;;;;;;;0.95;0.80;;;18.70;49.30;;;;;;5045424;28;20036;-84
2022/07/17 06:55:40;;;;;;;0.73;0.70;;;18.80;49.30;;;;;;5071930;28;20029;-84
2022/07/17 06:58:07;;;;;;;1.35;0.90;;;18.70;49.30;;;;;;5054991;28;20060;-83
2022/07/17 07:00:33;;;;;;;1.15;0.88;;;18.80;49.30;;;;;;5072025;28;20469;-83
2022/07/17 07:03:00;;;;;;;0.80;0.80;;;18.80;49.30;;;;;;5062378;28;20170;-83
2022/07/17 07:05:25;;;;;;;1.67;1.00;;;18.80;49.30;;;;;;5065497;28;20036;-83
2022/07/17 07:07:51;;;;;;;0.85;0.70;;;18.80;49.20;;;;;;5038459;28;20025;-84
2022/07/17 07:10:17;;;;;;;0.80;0.80;;;18.80;49.30;;;;;;5073902;28;20033;-84
2022/07/17 07:12:43;;;;;;;2.53;0.75;;;18.80;49.20;;;;;;5072216;28;20028;-84
2022/07/17 07:15:09;;;;;;;1.10;0.80;;;18.90;49.30;;;;;;5054855;28;20033;-84
2022/07/17 07:17:35;;;;;;;1.00;0.77;;;18.90;49.30;;;;;;5070105;28;20444;-85
2022/07/17 07:20:05;;;;;;;1.17;0.77;;;18.90;49.30;;;;;;5071567;28;20062;-84
2022/07/17 07:22:32;;;;;;;0.70;0.70;;;18.90;49.30;;;;;;5071803;28;20047;-82
2022/07/17 07:24:57;;;;;;;1.45;1.00;;;18.90;49.20;;;;;;5071143;28;20392;-84
2022/07/17 07:27:23;;;;;;;2.17;0.93;;;18.90;49.20;;;;;;5071392;28;20073;-84
2022/07/17 07:29:49;;;;;;;0.85;0.70;;;18.90;49.30;;;;;;5064608;28;20060;-83
2022/07/17 07:32:15;;;;;;;0.90;0.75;;;18.90;49.20;;;;;;5039749;28;20451;-82
2022/07/17 07:34:41;;;;;;;0.80;0.80;;;19.00;49.30;;;;;;5071560;28;20040;-82
2022/07/17 07:37:07;;;;;;;0.95;0.85;;;19.00;49.30;;;;;;5060331;28;20086;-83
2022/07/17 07:39:33;;;;;;;0.80;0.73;;;19.00;49.30;;;;;;5080182;28;20071;-83
2022/07/17 07:41:59;;;;;;;1.25;0.70;;;19.00;49.30;;;;;;5068860;28;20123;-85
2022/07/17 07:44:26;;;;;;;2.08;0.95;;;19.10;49.30;;;;;;5054840;28;20041;-85
2022/07/17 07:46:51;;;;;;;1.30;0.93;;;19.10;49.20;;;;;;5054683;28;20416;-84
2022/07/17 07:49:17;;;;;;;2.38;0.88;;;19.20;49.20;;;;;;5068113;28;20028;-86
2022/07/17 07:51:43;;;;;;;1.73;0.80;;;19.20;49.20;;;;;;5071371;28;20062;-84
2022/07/17 07:54:09;;;;;;;0.63;0.60;;;19.30;49.10;;;;;;5070923;28;20033;-84
2022/07/17 07:56:36;;;;;;;1.05;0.80;;;19.30;49.10;;;;;;5055228;28;20043;-85
2022/07/17 07:59:03;;;;;;;0.75;0.75;;;19.30;49.00;;;;;;5045817;28;20140;-84
2022/07/17 08:01:29;;;;;;;1.42;0.88;;;19.40;49.00;;;;;;5069028;28;20067;-86
2022/07/17 08:03:55;;;;;;;0.70;0.70;;;19.50;49.00;;;;;;5071360;28;20032;-85
2022/07/17 08:06:21;;;;;;;1.48;0.93;;;19.50;49.00;;;;;;5074299;28;20029;-85
2022/07/17 08:08:47;;;;;;;0.60;0.60;;;19.60;48.90;;;;;;5070554;28;20383;-83
2022/07/17 08:11:13;;;;;;;0.93;0.80;;;19.60;48.80;;;;;;5065842;28;20036;-84
2022/07/17 08:13:40;;;;;;;1.65;0.80;;;19.70;48.80;;;;;;5052589;28;20032;-82
2022/07/17 08:16:06;;;;;;;1.00;0.90;;;19.80;48.70;;;;;;5068580;28;20056;-85
2022/07/17 08:18:32;;;;;;;0.80;0.80;;;19.90;48.70;;;;;;5038885;28;20500;-87
2022/07/17 08:20:58;;;;;;;1.38;0.80;;;19.90;48.60;;;;;;5043071;28;20092;-82
2022/07/17 08:23:23;;;;;;;1.20;1.00;;;20.00;48.60;;;;;;5062503;28;20431;-80
2022/07/17 08:25:49;;;;;;;1.42;1.00;;;20.10;48.90;;;;;;5064966;28;20032;-79
2022/07/17 08:28:15;;;;;;;1.10;0.90;;;20.10;48.90;;;;;;5068712;28;20051;-78
2022/07/17 08:30:41;;;;;;;1.00;0.90;;;20.20;48.90;;;;;;5051814;28;20040;-79
2022/07/17 08:33:08;;;;;;;1.92;0.95;;;20.30;48.90;;;;;;5073860;28;20028;-79
2022/07/17 08:35:36;;;;;;;2.33;0.80;;;20.40;48.80;;;;;;5049371;28;20280;-79
2022/07/17 08:38:02;;;;;;;1.95;1.00;;;20.50;48.80;;;;;;5086661;28;20032;-79
2022/07/17 08:40:38;;;;;;;1.65;0.80;;;20.60;48.70;;;;;;5058814;28;20028;-79
2022/07/17 08:43:06;;;;;;;0.95;0.77;;;20.70;48.70;;;;;;5066640;28;20708;-80
2022/07/17 08:45:32;;;;;;;1.15;1.02;;;20.80;48.70;;;;;;5036701;28;20043;-79
2022/07/17 08:47:58;;;;;;;1.58;0.90;;;20.80;48.50;;;;;;5072655;28;20095;-80
2022/07/17 08:50:31;;;;;;;1.17;0.80;;;21.00;48.50;;;;;;5049959;28;20154;-80
2022/07/17 08:52:57;;;;;;;1.17;0.80;;;21.00;48.40;;;;;;5063327;28;20048;-80
2022/07/17 08:55:23;;;;;;;1.13;0.90;;;21.10;48.30;;;;;;5071731;28;20060;-79
2022/07/17 08:57:49;;;;;;;1.23;0.85;;;21.20;48.30;;;;;;5060560;28;20045;-79
2022/07/17 09:00:18;;;;;;;1.00;0.70;;;21.30;48.20;;;;;;5056017;28;20044;-79
2022/07/17 09:02:59;;;;;;;1.63;0.95;;;21.40;48.10;;;;;;5057055;28;20030;-80
2022/07/17 09:05:28;;;;;;;1.20;0.80;;;21.50;48.20;;;;;;5064755;28;20066;-79
2022/07/17 09:07:55;;;;;;;1.10;0.80;;;21.60;48.00;;;;;;5072024;28;20027;-78
2022/07/17 09:10:35;;;;;;;1.33;0.90;;;21.60;47.90;;;;;;5072262;28;20020;-79
2022/07/17 09:13:12;;;;;;;0.77;0.75;;;21.80;48.00;;;;;;5072983;28;20052;-79
2022/07/17 09:15:38;;;;;;;0.98;0.80;;;21.90;47.90;;;;;;5072994;28;20025;-78
2022/07/17 09:18:03;;;;;;;0.90;0.70;;;22.00;47.80;;;;;;5068775;28;20025;-79
2022/07/17 09:20:30;;;;;;;1.00;0.77;;;22.10;47.80;;;;;;5046957;28;20081;-82
2022/07/17 09:23:03;;;;;;;0.90;0.70;;;22.10;47.70;;;;;;5045813;28;20119;-81
2022/07/17 09:25:34;;;;;;;1.05;0.70;;;22.20;47.70;;;;;;5085732;28;20055;-80
2022/07/17 09:28:05;;;;;;;0.73;0.63;;;22.40;47.80;;;;;;5073200;28;20025;-79
2022/07/17 09:30:32;;;;;;;1.75;0.88;;;22.50;47.80;;;;;;5072309;28;20026;-80
2022/07/17 09:32:58;;;;;;;0.70;0.60;;;22.60;47.70;;;;;;5073005;28;20103;-80
2022/07/17 09:35:24;;;;;;;0.75;0.65;;;22.70;47.70;;;;;;5056069;28;20029;-79
2022/07/17 09:37:54;;;;;;;0.90;0.82;;;22.80;47.60;;;;;;5075017;28;20488;-79
2022/07/17 09:43:07;;;;;;;0.73;0.73;;;23.00;47.60;;;;;;5073160;28;20032;-81
2022/07/17 09:45:33;;;;;;;0.60;0.60;;;23.10;47.50;;;;;;5056475;28;20024;-79
2022/07/17 09:48:00;;;;;;;1.10;0.80;;;23.20;47.40;;;;;;5073572;28;20025;-81
2022/07/17 09:50:27;;;;;;;0.77;0.73;;;23.30;47.40;;;;;;5073959;28;20469;-80
2022/07/17 09:52:57;;;;;;;1.15;0.70;;;23.40;47.40;;;;;;5056441;28;20103;-80
2022/07/17 09:55:29;;;;;;;0.93;0.70;;;23.50;47.30;;;;;;5055919;28;20490;-80
2022/07/17 09:57:58;;;;;;;0.60;0.60;;;23.60;47.30;;;;;;5072838;28;20052;-79
2022/07/17 10:00:24;;;;;;;0.60;0.60;;;23.70;47.20;;;;;;5072459;28;20040;-79
2022/07/17 10:02:50;;;;;;;0.70;0.65;;;23.80;47.10;;;;;;5067242;28;20423;-80
2022/07/17 10:05:16;;;;;;;0.60;0.60;;;23.90;47.10;;;;;;5054028;28;20033;-79
2022/07/17 10:07:43;;;;;;;0.93;0.80;;;24.00;47.00;;;;;;5042377;28;20457;-80
2022/07/17 10:10:09;;;;;;;0.85;0.80;;;24.10;47.00;;;;;;5039407;28;20033;-80
2022/07/17 10:12:41;;;;;;;1.58;0.80;;;24.20;46.90;;;;;;5067014;28;20036;-79
2022/07/17 10:15:08;;;;;;;1.45;0.73;;;24.30;46.80;;;;;;5072309;28;20102;-79
2022/07/17 10:17:34;;;;;;;1.92;0.80;;;24.40;46.80;;;;;;5071567;28;20029;-80
2022/07/17 10:20:00;;;;;;;1.33;0.70;;;24.50;46.70;;;;;;5067772;28;20083;-80
2022/07/17 10:22:26;;;;;;;0.85;0.70;;;24.60;46.70;;;;;;5071644;28;20477;-79
2022/07/17 10:24:54;;;;;;;1.23;0.70;;;24.70;46.60;;;;;;5055064;28;20029;-78
2022/07/17 10:27:28;;;;;;;1.00;0.60;;;24.80;46.70;;;;;;5072373;28;20044;-79
2022/07/17 10:30:10;;;;;;;1.23;0.70;;;24.90;46.70;;;;;;5072251;28;20035;-79
2022/07/17 10:32:38;;;;;;;1.48;0.75;;;25.00;46.70;;;;;;5071117;28;20044;-79
2022/07/17 10:35:09;;;;;;;1.38;0.80;;;25.10;46.60;;;;;;5055823;28;20028;-78
2022/07/17 10:37:37;;;;;;;0.82;0.60;;;25.20;46.60;;;;;;5063839;28;20025;-79
2022/07/17 10:40:22;;;;;;;1.02;0.70;;;25.30;46.50;;;;;;5072626;28;20037;-80
2022/07/17 10:43:04;;;;;;;0.75;0.75;;;25.40;46.50;;;;;;5065212;28;20020;-80
2022/07/17 10:45:35;;;;;;;1.65;0.77;;;25.50;47.10;;;;;;5071329;28;20035;-82
2022/07/17 10:48:08;;;;;;;1.42;0.63;;;25.60;46.30;;;;;;5066125;28;20029;-80
2022/07/17 10:50:38;;;;;;;1.60;0.63;;;25.70;46.40;;;;;;5069914;28;20479;-82
2022/07/17 10:53:17;;;;;;;1.23;0.80;;;25.70;46.30;;;;;;5066520;28;20066;-79
2022/07/17 10:55:46;;;;;;;1.05;0.77;;;25.90;46.30;;;;;;5068875;28;20021;-80
2022/07/17 10:58:16;;;;;;;0.85;0.80;;;26.00;46.30;;;;;;5065037;28;20052;-79
2022/07/17 11:00:42;;;;;;;0.63;0.63;;;26.00;46.20;;;;;;5055111;28;20044;-79
2022/07/17 11:03:09;;;;;;;1.73;0.88;;;26.10;46.20;;;;;;5054984;28;20040;-79
2022/07/17 11:05:35;;;;;;;1.77;0.70;;;26.20;46.20;;;;;;5068338;28;20037;-80
2022/07/17 11:08:03;;;;;;;1.13;0.75;;;26.30;46.30;;;;;;5071474;28;20844;-80
2022/07/17 11:10:29;;;;;;;1.63;0.80;;;26.40;46.30;;;;;;5054362;28;20090;-81
2022/07/17 11:13:06;;;;;;;0.70;0.60;;;26.50;46.40;;;;;;5038511;28;20465;-80
2022/07/17 11:15:47;;;;;;;1.58;0.95;;;26.50;46.30;;;;;;5072102;28;20103;-80
2022/07/17 11:18:17;;;;;;;1.50;0.80;;;26.60;46.30;;;;;;5050782;28;20025;-81
2022/07/17 11:21:01;;;;;;;1.10;0.60;;;26.70;46.40;;;;;;5070742;28;20030;-80
2022/07/17 11:23:28;;;;;;;;;;;26.70;46.60;;;;;;5069391;28;20056;-82
2022/07/17 11:25:57;;;;;;;0.82;0.60;;;26.80;46.50;;;;;;5066039;28;19908;-82
2022/07/17 11:28:36;;;;;;;1.00;0.75;;;26.80;46.40;;;;;;5070847;28;20029;-81
2022/07/17 11:31:04;;;;;;;1.40;0.70;;;26.90;46.60;;;;;;5054508;28;20028;-80
2022/07/17 11:33:30;;;;;;;0.70;0.50;;;26.90;46.60;;;;;;5078547;28;20024;-81
2022/07/17 11:35:56;;;;;;;1.15;0.85;;;26.90;46.70;;;;;;5071108;28;20111;-81
2022/07/17 11:38:30;;;;;;;0.68;0.60;;;27.00;46.80;;;;;;5054606;28;20150;-80
2022/07/17 11:40:56;;;;;;;1.10;0.63;;;27.00;46.80;;;;;;5068995;28;20028;-82
2022/07/17 11:43:22;;;;;;;0.95;0.80;;;27.10;46.80;;;;;;5072423;28;20318;-83
2022/07/17 11:45:48;;;;;;;0.70;0.60;;;27.10;46.90;;;;;;5053299;28;20087;-83
2022/07/17 11:48:14;;;;;;;1.10;0.70;;;27.10;47.00;;;;;;5064884;28;20536;-82
2022/07/17 11:50:40;;;;;;;1.35;0.70;;;27.10;47.00;;;;;;5067537;28;20020;-82
2022/07/17 11:53:06;;;;;;;1.40;0.80;;;27.20;47.00;;;;;;5047559;28;20082;-83
2022/07/17 11:55:37;;;;;;;0.90;0.70;;;27.20;47.10;;;;;;5056256;28;20027;-82
2022/07/17 11:58:03;;;;;;;1.02;0.73;;;27.20;47.10;;;;;;5069525;28;20025;-83
2022/07/17 12:00:28;;;;;;;1.65;0.85;;;27.20;47.10;;;;;;5071716;28;20047;-82
2022/07/17 12:03:06;;;;;;;2.05;0.80;;;27.30;47.20;;;;;;5049820;28;20186;-83
2022/07/17 12:05:34;;;;;;;1.20;0.73;;;27.30;47.40;;;;;;5066481;28;20024;-80
2022/07/17 12:08:00;;;;;;;2.00;0.75;;;27.30;47.30;;;;;;5054353;28;20024;-80
2022/07/17 12:10:29;;;;;;;1.42;0.70;;;27.30;47.10;;;;;;5064056;28;20016;-81
2022/07/17 12:12:59;;;;;;;1.50;0.88;;;27.30;47.00;;;;;;5069485;28;20021;-80
2022/07/17 12:15:50;;;;;;;1.00;0.70;;;27.30;47.00;;;;;;5052247;28;20499;-81
2022/07/17 12:18:20;;;;;;;1.98;1.00;;;27.30;47.00;;;;;;5071402;28;20029;-80
2022/07/17 12:20:48;;;;;;;0.85;0.60;;;27.40;47.00;;;;;;5069677;28;20025;-81
2022/07/17 12:23:37;;;;;;;1.67;0.82;;;27.40;47.10;;;;;;5069744;28;20041;-80
2022/07/17 12:26:08;;;;;;;0.70;0.70;;;27.40;47.10;;;;;;5069975;28;20032;-78
2022/07/17 12:28:35;;;;;;;1.10;0.70;;;27.40;46.90;;;;;;5060139;28;20063;-80
2022/07/17 12:31:01;;;;;;;0.90;0.77;;;27.40;46.80;;;;;;5068924;28;20477;-79
2022/07/17 12:33:27;;;;;;;1.48;0.80;;;27.40;46.70;;;;;;5073852;28;20021;-80
2022/07/17 12:35:53;;;;;;;0.98;0.77;;;27.40;46.60;;;;;;5052425;28;20078;-81
2022/07/17 12:38:19;;;;;;;1.58;0.88;;;27.40;46.50;;;;;;5053690;28;20070;-79
2022/07/17 12:40:45;;;;;;;0.90;0.85;;;27.40;46.50;;;;;;5040779;28;20491;-79
2022/07/17 12:43:10;;;;;;;1.63;0.68;;;27.40;46.50;;;;;;5054764;28;20025;-81
2022/07/17 12:45:36;;;;;;;1.58;0.93;;;27.50;46.60;;;;;;5069445;28;20063;-80
2022/07/17 12:48:02;;;;;;;0.82;0.75;;;27.50;46.50;;;;;;5073379;28;20036;-80
2022/07/17 12:50:28;;;;;;;0.82;0.70;;;27.50;46.50;;;;;;5039034;28;20064;-80